Flight Track Log - Related Links

Times and Time Zones

All times are in EST time to prevent confusion due to time zone crossing. See the UCA4838 flight status page for this flight to view local times or setup timezone preferences in your user account.


Time Position Orientation Groundspeed Altitude Reporting Facility
EST Latitude Longitude Course Direction KTS MPH feet Rate Location/Type
Sat 10:35:51 AM 43.1092 -77.6853 189° South 104 120 1,100  Level Cleveland Center
Sat 10:36:28 AM 43.0917 -77.6892 189° South 126 145 2,300 1,326 Climbing Cleveland Center
Sat 10:37:17 AM 43.0733 -77.6575 128° Southeast 165 190 3,000 1,200 Climbing Cleveland Center
Sat 10:37:28 AM 43.0636 -77.6325 118° Southeast 205 236 3,500 1,574 Climbing Cleveland Center
Sat 10:38:18 AM 43.0481 -77.5883 116° Southeast 194 223 4,600 1,500 Climbing Cleveland Center
Sat 10:39:20 AM 43.0236 -77.5197 116° Southeast 201 231 6,300 1,610 Climbing Cleveland Center
Sat 10:40:21 AM 42.9903 -77.4347 118° Southeast 208 239 7,900 1,463 Climbing Cleveland Center
Sat 10:41:23 AM 42.9619 -77.3594 117° Southeast 220 253 9,300 1,366 Climbing Cleveland Center
Sat 10:42:24 AM 42.9344 -77.2839 116° Southeast 222 255 10,700 1,279 Climbing Cleveland Center
Sat 10:43:25 AM 42.9053 -77.2092 118° Southeast 222 255 11,900 1,073 Climbing Cleveland Center
Sat 10:44:27 AM 42.8758 -77.1317 117° Southeast 228 262 12,900 537 Climbing Cleveland Center
Sat 10:45:28 AM 42.8417 -77.0453 118° Southeast 254 292 13,000 49 Climbing Cleveland Center
Sat 10:46:30 AM 42.8033 -76.9461 118° Southeast 288 331 13,000  Level Cleveland Center
Sat 10:47:31 AM 42.7608 -76.8500 121° Southeast 295 339 13,000  Level Cleveland Center
Sat 10:48:33 AM 42.7169 -76.7528 122° Southeast 299 344 13,000  Level Cleveland Center
Sat 10:49:34 AM 42.6706 -76.6489 121° Southeast 299 344 13,000  Level Cleveland Center
Sat 10:50:36 AM 42.6228 -76.5400 121° Southeast 299 344 13,000  Level Cleveland Center
Sat 10:51:37 AM 42.5783 -76.4447 122° Southeast 299 344 13,000  Level Cleveland Center
Sat 10:52:39 AM 42.5419 -76.3611 121° Southeast 298 343 13,000  Level Cleveland Center
Sat 10:53:40 AM 42.4911 -76.2481 121° Southeast 295 339 13,000  Level Cleveland Center
Sat 10:54:50 AM 42.4489 -76.1556 122° Southeast 295 339 13,000  Level Boston Center
Sat 10:55:51 AM 42.4053 -76.0617 122° Southeast 297 342 13,000  Level Boston Center
Sat 10:56:52 AM 42.3539 -75.9456 121° Southeast 300 345 13,000  Level Boston Center
Sat 10:57:53 AM 42.3092 -75.8500 122° Southeast 302 348 13,000  Level Boston Center
Sat 10:58:54 AM 42.2708 -75.7647 121° Southeast 301 346 13,000  Level Boston Center
Sat 10:59:54 AM 42.2275 -75.6694 122° Southeast 299 344 13,000  Level Boston Center
Sat 11:00:55 AM 42.1839 -75.5750 122° Southeast 297 342 13,000 49 Level Boston Center
Sat 11:01:56 AM 42.1400 -75.4814 122° Southeast 296 341 13,100  Climbing Boston Center
Sat 11:02:59 AM 42.0964 -75.3864 122° Southeast 297 342 13,000 -145 Descending Boston Center
Sat 11:04:00 AM 42.0447 -75.2700 121° Southeast 301 346 12,800  Descending Boston Center
Sat 11:05:01 AM 42.0072 -75.1647 116° Southeast 312 359 13,000 98 Climbing Boston Center
Sat 11:06:02 AM 41.9669 -75.0611 118° Southeast 310 357 13,000  Level Boston Center
Sat 11:07:02 AM 41.9278 -74.9597 117° Southeast 305 351 13,000 -446 Level Boston Center
Sat 11:08:03 AM 41.8658 -74.8747 134° Southeast 297 342 12,100 -1,140 Descending Boston Center
Sat 11:09:03 AM 41.8061 -74.7925 134° Southeast 308 354 10,700 -1,355 Descending Boston Center
Sat 11:10:07 AM 41.7492 -74.7161 135° Southeast 294 338 9,300 -1,344 Descending Boston Center
Sat 11:11:08 AM 41.6936 -74.6422 135° Southeast 283 326 7,900 -1,289 Descending Boston Center
Sat 11:12:08 AM 41.6317 -74.5667 138° Southeast 279 321 6,700 -992 Descending Boston Center
Sat 11:13:09 AM 41.5653 -74.5772 187° South 242 278 5,900 -393 Descending Boston Center
Sat 11:14:10 AM 41.5008 -74.5914 189° South 237 273 5,900  Level Boston Center
Sat 11:15:11 AM 41.4381 -74.6039 188° South 231 266 5,900 50 Level Boston Center
Sat 11:16:11 AM 41.3711 -74.6189 190° South 229 264 6,000  Climbing Boston Center
Sat 11:16:44 AM 41.3333 -74.6167 177° South 231 266 5,900 -606 Descending New York TRACON
Sat 11:17:50 AM 41.2833 -74.5500 135° Southeast 262 302 5,000 -450 Descending New York TRACON
Sat 11:18:44 AM 41.2333 -74.4833 135° Southeast 244 281 5,000  Level New York TRACON
Sat 11:19:44 AM 41.1833 -74.4333 143° Southeast 252 290 5,000  Level New York TRACON
Sat 11:20:50 AM 41.1167 -74.3667 143° Southeast 251 289 5,000  Level New York TRACON
Sat 11:21:44 AM 41.0667 -74.3167 143° Southeast 253 291 5,000  Level New York TRACON
Sat 11:22:50 AM 41.0167 -74.2500 135° Southeast 252 290 5,000 -476 Level New York TRACON
Sat 11:23:50 AM 40.9667 -74.1833 135° Southeast 254 292 4,000 -650 Descending New York TRACON
Sat 11:24:50 AM 40.9167 -74.1333 143° Southeast 248 285 3,700 -650 Descending New York TRACON
Sat 11:25:50 AM 40.8500 -74.0833 150° Southeast 239 275 2,700 -684 Descending New York TRACON
Sat 11:26:44 AM 40.8000 -74.1000 194° South 199 229 2,400 -600 Descending New York TRACON
Sat 11:27:50 AM 40.7667 -74.1167 201° Southwest 137 158 1,500 -800 Descending New York TRACON
Sat 11:28:44 AM 40.7333 -74.1333 201° Southwest 131 151 800 -778 Descending New York TRACON
Sat 11:30:00 AM 40.6833 -74.1667 161° South  Level FlightAware Approximate
Sat 11:37:00 AM 40.6925 -74.1687 161° South  Level Estimated
Sat 11:38:00 AM 40.6925 -74.1687 161° South  Level Estimated

Login

Don't have an account? Register now (free) for customized features, flight alerts, and more!